sensor_id;sensor_type;location;lat;lon;timestamp;P1;durP1;ratioP1;P2;durP2;ratioP2
67195;SDS011;54122;53.538;49.366;2022-07-06T00:02:02;7.68;;;5.05;;
67195;SDS011;54122;53.538;49.366;2022-07-06T00:04:29;11.95;;;5.88;;
67195;SDS011;54122;53.538;49.366;2022-07-06T00:06:55;8.25;;;5.63;;
67195;SDS011;54122;53.538;49.366;2022-07-06T00:09:21;14.57;;;5.88;;
67195;SDS011;54122;53.538;49.366;2022-07-06T00:11:48;21.08;;;6.15;;
67195;SDS011;54122;53.538;49.366;2022-07-06T00:14:14;15.45;;;5.68;;
67195;SDS011;54122;53.538;49.366;2022-07-06T00:16:40;15.45;;;6.13;;
67195;SDS011;54122;53.538;49.366;2022-07-06T00:19:07;9.98;;;5.22;;
67195;SDS011;54122;53.538;49.366;2022-07-06T00:21:33;12.60;;;5.68;;
67195;SDS011;54122;53.538;49.366;2022-07-06T00:23:59;11.45;;;5.65;;
67195;SDS011;54122;53.538;49.366;2022-07-06T00:26:26;15.73;;;5.95;;
67195;SDS011;54122;53.538;49.366;2022-07-06T00:28:52;17.00;;;6.60;;
67195;SDS011;54122;53.538;49.366;2022-07-06T00:31:18;9.60;;;5.70;;
67195;SDS011;54122;53.538;49.366;2022-07-06T00:33:44;18.13;;;6.53;;
67195;SDS011;54122;53.538;49.366;2022-07-06T00:36:10;9.82;;;5.63;;
67195;SDS011;54122;53.538;49.366;2022-07-06T00:38:37;16.27;;;6.20;;
67195;SDS011;54122;53.538;49.366;2022-07-06T00:41:03;13.07;;;5.68;;
67195;SDS011;54122;53.538;49.366;2022-07-06T00:43:45;13.05;;;6.47;;
67195;SDS011;54122;53.538;49.366;2022-07-06T00:46:30;14.05;;;6.35;;
67195;SDS011;54122;53.538;49.366;2022-07-06T00:48:57;18.38;;;6.25;;
67195;SDS011;54122;53.538;49.366;2022-07-06T00:51:24;11.48;;;6.03;;
67195;SDS011;54122;53.538;49.366;2022-07-06T00:53:55;17.58;;;6.75;;
67195;SDS011;54122;53.538;49.366;2022-07-06T00:56:25;24.00;;;7.57;;
67195;SDS011;54122;53.538;49.366;2022-07-06T00:58:54;18.95;;;7.13;;
67195;SDS011;54122;53.538;49.366;2022-07-06T01:01:20;16.60;;;6.55;;
67195;SDS011;54122;53.538;49.366;2022-07-06T01:03:46;15.77;;;6.93;;
67195;SDS011;54122;53.538;49.366;2022-07-06T01:06:12;22.00;;;6.30;;
67195;SDS011;54122;53.538;49.366;2022-07-06T01:08:39;16.23;;;6.65;;
67195;SDS011;54122;53.538;49.366;2022-07-06T01:11:06;13.30;;;6.82;;
67195;SDS011;54122;53.538;49.366;2022-07-06T01:13:33;13.55;;;5.68;;
67195;SDS011;54122;53.538;49.366;2022-07-06T01:15:59;13.95;;;5.90;;
67195;SDS011;54122;53.538;49.366;2022-07-06T01:18:26;16.33;;;5.82;;
67195;SDS011;54122;53.538;49.366;2022-07-06T01:21:04;13.75;;;7.07;;
67195;SDS011;54122;53.538;49.366;2022-07-06T01:23:43;14.18;;;6.47;;
67195;SDS011;54122;53.538;49.366;2022-07-06T01:26:15;13.10;;;6.43;;
67195;SDS011;54122;53.538;49.366;2022-07-06T01:28:46;20.73;;;6.07;;
67195;SDS011;54122;53.538;49.366;2022-07-06T01:31:20;15.10;;;6.13;;
67195;SDS011;54122;53.538;49.366;2022-07-06T01:33:51;15.05;;;6.70;;
67195;SDS011;54122;53.538;49.366;2022-07-06T01:36:19;19.75;;;7.30;;
67195;SDS011;54122;53.538;49.366;2022-07-06T01:41:19;12.40;;;6.50;;
67195;SDS011;54122;53.538;49.366;2022-07-06T01:43:46;14.38;;;6.60;;
67195;SDS011;54122;53.538;49.366;2022-07-06T01:46:12;14.00;;;5.65;;
67195;SDS011;54122;53.538;49.366;2022-07-06T01:48:39;12.45;;;4.78;;
67195;SDS011;54122;53.538;49.366;2022-07-06T01:51:05;12.77;;;5.65;;
67195;SDS011;54122;53.538;49.366;2022-07-06T01:53:32;11.43;;;5.78;;
67195;SDS011;54122;53.538;49.366;2022-07-06T01:55:58;9.98;;;5.18;;
67195;SDS011;54122;53.538;49.366;2022-07-06T01:58:24;12.77;;;5.20;;
67195;SDS011;54122;53.538;49.366;2022-07-06T02:00:50;9.10;;;4.90;;
67195;SDS011;54122;53.538;49.366;2022-07-06T02:03:17;10.52;;;4.88;;
67195;SDS011;54122;53.538;49.366;2022-07-06T02:05:43;9.80;;;4.38;;
67195;SDS011;54122;53.538;49.366;2022-07-06T02:08:09;10.18;;;4.25;;
67195;SDS011;54122;53.538;49.366;2022-07-06T02:10:35;9.18;;;4.50;;
67195;SDS011;54122;53.538;49.366;2022-07-06T02:13:01;19.73;;;4.75;;
67195;SDS011;54122;53.538;49.366;2022-07-06T02:15:27;9.32;;;4.05;;
67195;SDS011;54122;53.538;49.366;2022-07-06T02:17:54;18.83;;;4.25;;
67195;SDS011;54122;53.538;49.366;2022-07-06T02:20:20;6.80;;;3.70;;
67195;SDS011;54122;53.538;49.366;2022-07-06T02:22:46;8.27;;;3.97;;
67195;SDS011;54122;53.538;49.366;2022-07-06T02:25:12;8.48;;;3.95;;
67195;SDS011;54122;53.538;49.366;2022-07-06T02:27:38;12.10;;;3.40;;
67195;SDS011;54122;53.538;49.366;2022-07-06T02:30:05;15.93;;;4.53;;
67195;SDS011;54122;53.538;49.366;2022-07-06T02:32:31;15.13;;;4.20;;
67195;SDS011;54122;53.538;49.366;2022-07-06T02:34:58;7.53;;;3.78;;
67195;SDS011;54122;53.538;49.366;2022-07-06T02:37:24;8.23;;;3.03;;
67195;SDS011;54122;53.538;49.366;2022-07-06T02:39:50;12.98;;;3.50;;
67195;SDS011;54122;53.538;49.366;2022-07-06T02:42:16;10.40;;;2.58;;
67195;SDS011;54122;53.538;49.366;2022-07-06T02:44:42;6.82;;;2.28;;
67195;SDS011;54122;53.538;49.366;2022-07-06T02:47:19;6.50;;;2.60;;
67195;SDS011;54122;53.538;49.366;2022-07-06T02:49:45;5.57;;;2.10;;
67195;SDS011;54122;53.538;49.366;2022-07-06T02:52:11;10.50;;;1.80;;
67195;SDS011;54122;53.538;49.366;2022-07-06T02:54:37;9.98;;;2.00;;
67195;SDS011;54122;53.538;49.366;2022-07-06T02:57:04;8.85;;;1.60;;
67195;SDS011;54122;53.538;49.366;2022-07-06T02:59:30;3.83;;;1.77;;
67195;SDS011;54122;53.538;49.366;2022-07-06T03:01:56;13.15;;;2.10;;
67195;SDS011;54122;53.538;49.366;2022-07-06T03:04:22;10.25;;;1.40;;
67195;SDS011;54122;53.538;49.366;2022-07-06T03:06:48;14.35;;;1.73;;
67195;SDS011;54122;53.538;49.366;2022-07-06T03:09:14;5.75;;;1.75;;
67195;SDS011;54122;53.538;49.366;2022-07-06T03:11:40;10.05;;;1.80;;
67195;SDS011;54122;53.538;49.366;2022-07-06T03:14:07;14.38;;;1.80;;
67195;SDS011;54122;53.538;49.366;2022-07-06T03:16:33;6.20;;;1.40;;
67195;SDS011;54122;53.538;49.366;2022-07-06T03:18:59;8.20;;;1.77;;
67195;SDS011;54122;53.538;49.366;2022-07-06T03:21:25;12.20;;;2.25;;
67195;SDS011;54122;53.538;49.366;2022-07-06T03:23:51;8.10;;;1.90;;
67195;SDS011;54122;53.538;49.366;2022-07-06T03:26:18;5.30;;;1.80;;
67195;SDS011;54122;53.538;49.366;2022-07-06T03:28:44;7.70;;;1.85;;
67195;SDS011;54122;53.538;49.366;2022-07-06T03:31:10;9.18;;;2.00;;
67195;SDS011;54122;53.538;49.366;2022-07-06T03:33:37;11.68;;;1.88;;
67195;SDS011;54122;53.538;49.366;2022-07-06T03:36:03;6.18;;;1.70;;
67195;SDS011;54122;53.538;49.366;2022-07-06T03:38:30;6.55;;;2.03;;
67195;SDS011;54122;53.538;49.366;2022-07-06T03:40:56;13.07;;;2.20;;
67195;SDS011;54122;53.538;49.366;2022-07-06T03:43:22;14.43;;;1.80;;
67195;SDS011;54122;53.538;49.366;2022-07-06T03:45:49;4.03;;;1.13;;
67195;SDS011;54122;53.538;49.366;2022-07-06T03:48:15;8.23;;;1.17;;
67195;SDS011;54122;53.538;49.366;2022-07-06T03:50:41;3.20;;;1.00;;
67195;SDS011;54122;53.538;49.366;2022-07-06T03:53:07;12.52;;;1.10;;
67195;SDS011;54122;53.538;49.366;2022-07-06T03:55:34;6.22;;;1.10;;
67195;SDS011;54122;53.538;49.366;2022-07-06T03:58:00;6.45;;;1.10;;
67195;SDS011;54122;53.538;49.366;2022-07-06T04:00:26;5.68;;;1.00;;
67195;SDS011;54122;53.538;49.366;2022-07-06T04:02:52;7.60;;;1.10;;
67195;SDS011;54122;53.538;49.366;2022-07-06T04:05:19;3.17;;;0.90;;
67195;SDS011;54122;53.538;49.366;2022-07-06T04:07:47;7.13;;;1.00;;
67195;SDS011;54122;53.538;49.366;2022-07-06T04:10:14;12.20;;;1.35;;
67195;SDS011;54122;53.538;49.366;2022-07-06T04:12:41;14.85;;;1.50;;
67195;SDS011;54122;53.538;49.366;2022-07-06T04:15:08;7.25;;;1.00;;
67195;SDS011;54122;53.538;49.366;2022-07-06T04:17:35;9.60;;;1.00;;
67195;SDS011;54122;53.538;49.366;2022-07-06T04:20:22;3.50;;;1.00;;
67195;SDS011;54122;53.538;49.366;2022-07-06T04:22:49;10.05;;;1.17;;
67195;SDS011;54122;53.538;49.366;2022-07-06T04:25:16;7.97;;;1.00;;
67195;SDS011;54122;53.538;49.366;2022-07-06T04:27:42;19.42;;;1.45;;
67195;SDS011;54122;53.538;49.366;2022-07-06T04:30:09;10.75;;;1.08;;
67195;SDS011;54122;53.538;49.366;2022-07-06T04:32:36;9.50;;;0.82;;
67195;SDS011;54122;53.538;49.366;2022-07-06T04:35:03;8.48;;;0.80;;
67195;SDS011;54122;53.538;49.366;2022-07-06T04:37:30;4.93;;;1.10;;
67195;SDS011;54122;53.538;49.366;2022-07-06T04:39:57;7.05;;;0.98;;
67195;SDS011;54122;53.538;49.366;2022-07-06T04:42:23;16.25;;;1.30;;
67195;SDS011;54122;53.538;49.366;2022-07-06T04:44:50;6.80;;;1.17;;
67195;SDS011;54122;53.538;49.366;2022-07-06T04:47:17;3.28;;;0.95;;
67195;SDS011;54122;53.538;49.366;2022-07-06T04:49:43;39.33;;;1.63;;
67195;SDS011;54122;53.538;49.366;2022-07-06T04:52:09;12.20;;;1.20;;
67195;SDS011;54122;53.538;49.366;2022-07-06T04:54:36;9.70;;;0.95;;
67195;SDS011;54122;53.538;49.366;2022-07-06T04:57:02;2.83;;;0.90;;
67195;SDS011;54122;53.538;49.366;2022-07-06T04:59:29;5.10;;;0.70;;
67195;SDS011;54122;53.538;49.366;2022-07-06T05:01:55;3.50;;;0.70;;
67195;SDS011;54122;53.538;49.366;2022-07-06T05:04:21;4.15;;;0.70;;
67195;SDS011;54122;53.538;49.366;2022-07-06T05:06:49;9.57;;;1.70;;
67195;SDS011;54122;53.538;49.366;2022-07-06T05:09:15;4.50;;;0.82;;
67195;SDS011;54122;53.538;49.366;2022-07-06T05:11:41;5.45;;;0.75;;
67195;SDS011;54122;53.538;49.366;2022-07-06T05:14:07;5.97;;;0.80;;
67195;SDS011;54122;53.538;49.366;2022-07-06T05:16:33;9.93;;;0.85;;
67195;SDS011;54122;53.538;49.366;2022-07-06T05:19:00;13.50;;;0.70;;
67195;SDS011;54122;53.538;49.366;2022-07-06T05:21:26;6.78;;;0.82;;
67195;SDS011;54122;53.538;49.366;2022-07-06T05:23:52;19.60;;;1.13;;
67195;SDS011;54122;53.538;49.366;2022-07-06T05:26:18;5.68;;;0.90;;
67195;SDS011;54122;53.538;49.366;2022-07-06T05:28:44;6.68;;;1.02;;
67195;SDS011;54122;53.538;49.366;2022-07-06T05:31:11;7.57;;;0.90;;
67195;SDS011;54122;53.538;49.366;2022-07-06T05:33:37;6.60;;;0.77;;
67195;SDS011;54122;53.538;49.366;2022-07-06T05:36:04;13.15;;;1.08;;
67195;SDS011;54122;53.538;49.366;2022-07-06T05:38:30;8.85;;;0.70;;
67195;SDS011;54122;53.538;49.366;2022-07-06T05:40:57;10.15;;;1.30;;
67195;SDS011;54122;53.538;49.366;2022-07-06T05:43:23;10.70;;;1.30;;
67195;SDS011;54122;53.538;49.366;2022-07-06T05:45:49;4.55;;;0.70;;
67195;SDS011;54122;53.538;49.366;2022-07-06T05:48:15;5.05;;;0.70;;
67195;SDS011;54122;53.538;49.366;2022-07-06T05:51:00;9.55;;;1.30;;
67195;SDS011;54122;53.538;49.366;2022-07-06T05:53:26;11.13;;;0.98;;
67195;SDS011;54122;53.538;49.366;2022-07-06T05:55:52;7.00;;;0.90;;
67195;SDS011;54122;53.538;49.366;2022-07-06T05:58:18;30.45;;;6.85;;
67195;SDS011;54122;53.538;49.366;2022-07-06T06:00:45;27.15;;;2.50;;
67195;SDS011;54122;53.538;49.366;2022-07-06T06:03:11;12.18;;;1.50;;
67195;SDS011;54122;53.538;49.366;2022-07-06T06:05:37;12.93;;;0.82;;
67195;SDS011;54122;53.538;49.366;2022-07-06T06:08:04;7.95;;;0.90;;
67195;SDS011;54122;53.538;49.366;2022-07-06T06:10:30;10.88;;;1.10;;
67195;SDS011;54122;53.538;49.366;2022-07-06T06:12:56;13.25;;;0.85;;
67195;SDS011;54122;53.538;49.366;2022-07-06T06:15:22;14.48;;;1.45;;
67195;SDS011;54122;53.538;49.366;2022-07-06T06:17:49;7.88;;;0.88;;
67195;SDS011;54122;53.538;49.366;2022-07-06T06:20:15;6.75;;;0.70;;
67195;SDS011;54122;53.538;49.366;2022-07-06T06:25:14;4.22;;;0.77;;
67195;SDS011;54122;53.538;49.366;2022-07-06T06:27:41;4.20;;;0.63;;
67195;SDS011;54122;53.538;49.366;2022-07-06T06:30:08;6.25;;;0.70;;
67195;SDS011;54122;53.538;49.366;2022-07-06T06:32:35;13.57;;;1.10;;
67195;SDS011;54122;53.538;49.366;2022-07-06T06:35:02;13.20;;;1.00;;
67195;SDS011;54122;53.538;49.366;2022-07-06T06:37:28;33.15;;;3.10;;
67195;SDS011;54122;53.538;49.366;2022-07-06T06:39:55;47.67;;;3.28;;
67195;SDS011;54122;53.538;49.366;2022-07-06T06:42:21;31.35;;;3.53;;
67195;SDS011;54122;53.538;49.366;2022-07-06T06:44:47;6.35;;;0.70;;
67195;SDS011;54122;53.538;49.366;2022-07-06T06:47:14;21.40;;;1.75;;
67195;SDS011;54122;53.538;49.366;2022-07-06T06:49:40;9.48;;;2.70;;
67195;SDS011;54122;53.538;49.366;2022-07-06T06:52:06;46.55;;;11.93;;
67195;SDS011;54122;53.538;49.366;2022-07-06T06:54:32;11.07;;;1.58;;
67195;SDS011;54122;53.538;49.366;2022-07-06T06:56:58;13.88;;;1.17;;
67195;SDS011;54122;53.538;49.366;2022-07-06T06:59:24;6.15;;;1.10;;
67195;SDS011;54122;53.538;49.366;2022-07-06T07:01:51;29.98;;;2.60;;
67195;SDS011;54122;53.538;49.366;2022-07-06T07:04:17;25.33;;;2.63;;
67195;SDS011;54122;53.538;49.366;2022-07-06T07:06:43;132.65;;;10.40;;
67195;SDS011;54122;53.538;49.366;2022-07-06T07:09:09;7.05;;;0.90;;
67195;SDS011;54122;53.538;49.366;2022-07-06T07:11:35;7.07;;;0.70;;
67195;SDS011;54122;53.538;49.366;2022-07-06T07:14:01;1.75;;;0.80;;
67195;SDS011;54122;53.538;49.366;2022-07-06T07:16:28;1.95;;;0.80;;
67195;SDS011;54122;53.538;49.366;2022-07-06T07:18:54;4.25;;;0.50;;
67195;SDS011;54122;53.538;49.366;2022-07-06T07:21:21;22.17;;;1.52;;
67195;SDS011;54122;53.538;49.366;2022-07-06T07:23:47;10.15;;;0.82;;
67195;SDS011;54122;53.538;49.366;2022-07-06T07:26:14;79.88;;;10.90;;
67195;SDS011;54122;53.538;49.366;2022-07-06T07:28:41;5.68;;;0.80;;
67195;SDS011;54122;53.538;49.366;2022-07-06T07:31:07;7.35;;;0.65;;
67195;SDS011;54122;53.538;49.366;2022-07-06T07:33:34;9.00;;;1.05;;
67195;SDS011;54122;53.538;49.366;2022-07-06T07:36:00;11.82;;;1.63;;
67195;SDS011;54122;53.538;49.366;2022-07-06T07:38:26;11.43;;;1.35;;
67195;SDS011;54122;53.538;49.366;2022-07-06T07:40:53;17.67;;;1.15;;
67195;SDS011;54122;53.538;49.366;2022-07-06T07:43:19;5.97;;;1.00;;
67195;SDS011;54122;53.538;49.366;2022-07-06T07:45:46;11.60;;;1.00;;
67195;SDS011;54122;53.538;49.366;2022-07-06T07:48:13;12.65;;;1.13;;
67195;SDS011;54122;53.538;49.366;2022-07-06T07:50:40;14.27;;;1.40;;
67195;SDS011;54122;53.538;49.366;2022-07-06T07:53:07;12.23;;;1.10;;
67195;SDS011;54122;53.538;49.366;2022-07-06T07:55:33;5.82;;;0.60;;
67195;SDS011;54122;53.538;49.366;2022-07-06T07:58:00;11.32;;;0.82;;
67195;SDS011;54122;53.538;49.366;2022-07-06T08:00:26;8.05;;;0.88;;
67195;SDS011;54122;53.538;49.366;2022-07-06T08:02:54;5.18;;;0.70;;
67195;SDS011;54122;53.538;49.366;2022-07-06T08:05:20;6.45;;;0.60;;
67195;SDS011;54122;53.538;49.366;2022-07-06T08:07:47;6.28;;;0.70;;
67195;SDS011;54122;53.538;49.366;2022-07-06T08:10:13;5.65;;;0.70;;
67195;SDS011;54122;53.538;49.366;2022-07-06T08:12:39;8.75;;;0.90;;
67195;SDS011;54122;53.538;49.366;2022-07-06T08:15:06;11.48;;;0.80;;
67195;SDS011;54122;53.538;49.366;2022-07-06T08:17:35;10.20;;;0.80;;
67195;SDS011;54122;53.538;49.366;2022-07-06T08:20:01;8.82;;;0.75;;
67195;SDS011;54122;53.538;49.366;2022-07-06T08:22:27;10.50;;;0.88;;
67195;SDS011;54122;53.538;49.366;2022-07-06T08:24:55;20.10;;;1.30;;
67195;SDS011;54122;53.538;49.366;2022-07-06T08:27:21;14.65;;;1.00;;
67195;SDS011;54122;53.538;49.366;2022-07-06T08:29:48;4.07;;;0.82;;
67195;SDS011;54122;53.538;49.366;2022-07-06T08:32:14;4.15;;;0.90;;
67195;SDS011;54122;53.538;49.366;2022-07-06T08:34:40;7.63;;;0.75;;
67195;SDS011;54122;53.538;49.366;2022-07-06T08:37:08;5.78;;;0.80;;
67195;SDS011;54122;53.538;49.366;2022-07-06T08:39:34;8.35;;;0.80;;
67195;SDS011;54122;53.538;49.366;2022-07-06T08:42:00;11.80;;;0.77;;
67195;SDS011;54122;53.538;49.366;2022-07-06T08:44:28;7.00;;;1.00;;
67195;SDS011;54122;53.538;49.366;2022-07-06T08:46:56;6.65;;;0.73;;
67195;SDS011;54122;53.538;49.366;2022-07-06T08:49:24;9.48;;;1.20;;
67195;SDS011;54122;53.538;49.366;2022-07-06T08:51:51;8.52;;;0.70;;
67195;SDS011;54122;53.538;49.366;2022-07-06T08:54:18;8.15;;;0.80;;
67195;SDS011;54122;53.538;49.366;2022-07-06T08:56:46;35.42;;;1.65;;
67195;SDS011;54122;53.538;49.366;2022-07-06T08:59:12;6.32;;;0.70;;
67195;SDS011;54122;53.538;49.366;2022-07-06T09:01:38;14.32;;;1.33;;
67195;SDS011;54122;53.538;49.366;2022-07-06T09:04:05;5.97;;;0.70;;
67195;SDS011;54122;53.538;49.366;2022-07-06T09:06:32;3.10;;;0.80;;
67195;SDS011;54122;53.538;49.366;2022-07-06T09:08:59;6.05;;;0.80;;
67195;SDS011;54122;53.538;49.366;2022-07-06T09:11:30;16.65;;;1.00;;
67195;SDS011;54122;53.538;49.366;2022-07-06T09:13:56;34.85;;;1.77;;
67195;SDS011;54122;53.538;49.366;2022-07-06T09:16:26;17.38;;;1.23;;
67195;SDS011;54122;53.538;49.366;2022-07-06T09:18:54;5.97;;;0.80;;
67195;SDS011;54122;53.538;49.366;2022-07-06T09:21:24;10.52;;;0.88;;
67195;SDS011;54122;53.538;49.366;2022-07-06T09:23:56;4.57;;;0.70;;
67195;SDS011;54122;53.538;49.366;2022-07-06T09:26:24;13.52;;;1.08;;
67195;SDS011;54122;53.538;49.366;2022-07-06T09:28:51;31.20;;;3.20;;
67195;SDS011;54122;53.538;49.366;2022-07-06T09:31:20;95.68;;;6.40;;
67195;SDS011;54122;53.538;49.366;2022-07-06T09:34:05;16.17;;;1.10;;
67195;SDS011;54122;53.538;49.366;2022-07-06T09:36:46;7.03;;;0.70;;
67195;SDS011;54122;53.538;49.366;2022-07-06T09:44:21;11.45;;;1.05;;
67195;SDS011;54122;53.538;49.366;2022-07-06T09:46:48;11.60;;;1.27;;
67195;SDS011;54122;53.538;49.366;2022-07-06T09:49:20;7.40;;;0.80;;
67195;SDS011;54122;53.538;49.366;2022-07-06T09:51:49;11.68;;;1.05;;
67195;SDS011;54122;53.538;49.366;2022-07-06T09:54:17;11.45;;;1.00;;
67195;SDS011;54122;53.538;49.366;2022-07-06T09:56:45;3.20;;;1.00;;
67195;SDS011;54122;53.538;49.366;2022-07-06T09:59:22;5.43;;;1.10;;
67195;SDS011;54122;53.538;49.366;2022-07-06T10:01:54;17.90;;;1.30;;
67195;SDS011;54122;53.538;49.366;2022-07-06T10:04:22;26.77;;;2.42;;
67195;SDS011;54122;53.538;49.366;2022-07-06T10:06:50;35.33;;;3.40;;
67195;SDS011;54122;53.538;49.366;2022-07-06T10:09:17;57.58;;;3.65;;
67195;SDS011;54122;53.538;49.366;2022-07-06T10:11:52;29.10;;;1.77;;
67195;SDS011;54122;53.538;49.366;2022-07-06T10:14:21;24.20;;;2.40;;
67195;SDS011;54122;53.538;49.366;2022-07-06T10:16:53;21.80;;;1.20;;
67195;SDS011;54122;53.538;49.366;2022-07-06T10:19:22;7.32;;;1.10;;
67195;SDS011;54122;53.538;49.366;2022-07-06T10:21:49;7.88;;;0.90;;
67195;SDS011;54122;53.538;49.366;2022-07-06T10:24:19;42.58;;;2.00;;
67195;SDS011;54122;53.538;49.366;2022-07-06T10:26:46;17.77;;;1.15;;
67195;SDS011;54122;53.538;49.366;2022-07-06T10:29:13;6.45;;;0.65;;
67195;SDS011;54122;53.538;49.366;2022-07-06T10:31:41;3.28;;;0.80;;
67195;SDS011;54122;53.538;49.366;2022-07-06T10:34:10;8.77;;;1.00;;
67195;SDS011;54122;53.538;49.366;2022-07-06T10:36:39;5.72;;;1.00;;
67195;SDS011;54122;53.538;49.366;2022-07-06T10:39:06;6.72;;;0.70;;
67195;SDS011;54122;53.538;49.366;2022-07-06T10:41:52;22.55;;;2.67;;
67195;SDS011;54122;53.538;49.366;2022-07-06T10:44:23;24.75;;;2.22;;
67195;SDS011;54122;53.538;49.366;2022-07-06T10:46:54;22.45;;;2.72;;
67195;SDS011;54122;53.538;49.366;2022-07-06T10:49:22;2.45;;;0.60;;
67195;SDS011;54122;53.538;49.366;2022-07-06T10:51:50;13.07;;;1.50;;
67195;SDS011;54122;53.538;49.366;2022-07-06T10:54:20;7.63;;;0.70;;
67195;SDS011;54122;53.538;49.366;2022-07-06T10:56:47;38.15;;;3.28;;
67195;SDS011;54122;53.538;49.366;2022-07-06T10:59:17;63.90;;;5.03;;
67195;SDS011;54122;53.538;49.366;2022-07-06T11:04:47;56.22;;;3.63;;
67195;SDS011;54122;53.538;49.366;2022-07-06T11:07:15;58.13;;;4.07;;
67195;SDS011;54122;53.538;49.366;2022-07-06T11:09:54;29.67;;;1.73;;
67195;SDS011;54122;53.538;49.366;2022-07-06T11:12:24;9.52;;;1.10;;
67195;SDS011;54122;53.538;49.366;2022-07-06T11:14:51;49.33;;;4.57;;
67195;SDS011;54122;53.538;49.366;2022-07-06T11:17:19;5.35;;;1.13;;
67195;SDS011;54122;53.538;49.366;2022-07-06T11:22:35;12.20;;;0.90;;
67195;SDS011;54122;53.538;49.366;2022-07-06T11:25:03;11.90;;;0.80;;
67195;SDS011;54122;53.538;49.366;2022-07-06T11:27:34;2.70;;;0.50;;
67195;SDS011;54122;53.538;49.366;2022-07-06T11:30:00;13.43;;;0.82;;
67195;SDS011;54122;53.538;49.366;2022-07-06T11:32:26;7.95;;;0.70;;
67195;SDS011;54122;53.538;49.366;2022-07-06T11:34:53;3.40;;;0.63;;
67195;SDS011;54122;53.538;49.366;2022-07-06T11:37:19;4.63;;;0.80;;
67195;SDS011;54122;53.538;49.366;2022-07-06T11:39:46;2.33;;;0.70;;
67195;SDS011;54122;53.538;49.366;2022-07-06T11:42:14;8.18;;;0.80;;
67195;SDS011;54122;53.538;49.366;2022-07-06T11:44:45;10.35;;;0.70;;
67195;SDS011;54122;53.538;49.366;2022-07-06T11:47:12;5.97;;;0.93;;
67195;SDS011;54122;53.538;49.366;2022-07-06T11:49:39;8.00;;;0.90;;
67195;SDS011;54122;53.538;49.366;2022-07-06T11:52:06;6.50;;;0.88;;
67195;SDS011;54122;53.538;49.366;2022-07-06T11:54:34;6.13;;;1.02;;
67195;SDS011;54122;53.538;49.366;2022-07-06T11:57:01;5.50;;;0.80;;
67195;SDS011;54122;53.538;49.366;2022-07-06T11:59:30;9.25;;;0.70;;
67195;SDS011;54122;53.538;49.366;2022-07-06T12:04:26;4.15;;;0.80;;
67195;SDS011;54122;53.538;49.366;2022-07-06T12:06:53;8.20;;;1.30;;
67195;SDS011;54122;53.538;49.366;2022-07-06T12:09:20;9.05;;;1.05;;
67195;SDS011;54122;53.538;49.366;2022-07-06T12:11:47;11.98;;;1.30;;
67195;SDS011;54122;53.538;49.366;2022-07-06T12:14:17;6.90;;;0.80;;
67195;SDS011;54122;53.538;49.366;2022-07-06T12:19:12;7.63;;;0.77;;
67195;SDS011;54122;53.538;49.366;2022-07-06T12:21:45;4.65;;;0.70;;
67195;SDS011;54122;53.538;49.366;2022-07-06T12:24:19;5.28;;;0.70;;
67195;SDS011;54122;53.538;49.366;2022-07-06T12:26:51;3.80;;;0.70;;
67195;SDS011;54122;53.538;49.366;2022-07-06T12:29:19;2.13;;;0.50;;
67195;SDS011;54122;53.538;49.366;2022-07-06T12:31:51;6.10;;;0.90;;
67195;SDS011;54122;53.538;49.366;2022-07-06T12:34:20;28.85;;;3.53;;
67195;SDS011;54122;53.538;49.366;2022-07-06T12:36:51;10.80;;;1.33;;
67195;SDS011;54122;53.538;49.366;2022-07-06T12:39:20;8.63;;;1.38;;
67195;SDS011;54122;53.538;49.366;2022-07-06T12:41:54;11.40;;;0.93;;
67195;SDS011;54122;53.538;49.366;2022-07-06T12:46:49;8.10;;;1.20;;
67195;SDS011;54122;53.538;49.366;2022-07-06T12:49:23;20.20;;;1.50;;
67195;SDS011;54122;53.538;49.366;2022-07-06T12:51:50;7.53;;;0.70;;
67195;SDS011;54122;53.538;49.366;2022-07-06T12:54:16;7.70;;;1.05;;
67195;SDS011;54122;53.538;49.366;2022-07-06T12:57:02;7.18;;;0.85;;
67195;SDS011;54122;53.538;49.366;2022-07-06T12:59:35;3.33;;;0.73;;
67195;SDS011;54122;53.538;49.366;2022-07-06T13:02:04;5.45;;;0.77;;
67195;SDS011;54122;53.538;49.366;2022-07-06T13:04:31;5.10;;;0.70;;
67195;SDS011;54122;53.538;49.366;2022-07-06T13:07:01;12.80;;;0.85;;
67195;SDS011;54122;53.538;49.366;2022-07-06T13:09:29;4.07;;;0.80;;
67195;SDS011;54122;53.538;49.366;2022-07-06T13:11:55;6.18;;;0.80;;
67195;SDS011;54122;53.538;49.366;2022-07-06T13:14:22;6.25;;;0.73;;
67195;SDS011;54122;53.538;49.366;2022-07-06T13:16:48;6.40;;;0.60;;
67195;SDS011;54122;53.538;49.366;2022-07-06T13:19:14;3.25;;;0.60;;
67195;SDS011;54122;53.538;49.366;2022-07-06T13:21:41;7.78;;;0.73;;
67195;SDS011;54122;53.538;49.366;2022-07-06T13:24:07;6.03;;;0.90;;
67195;SDS011;54122;53.538;49.366;2022-07-06T13:26:33;15.77;;;1.25;;
67195;SDS011;54122;53.538;49.366;2022-07-06T13:29:00;5.10;;;0.85;;
67195;SDS011;54122;53.538;49.366;2022-07-06T13:31:27;5.97;;;0.60;;
67195;SDS011;54122;53.538;49.366;2022-07-06T13:33:53;7.22;;;0.60;;
67195;SDS011;54122;53.538;49.366;2022-07-06T13:36:20;27.35;;;1.67;;
67195;SDS011;54122;53.538;49.366;2022-07-06T13:38:46;8.73;;;0.80;;
67195;SDS011;54122;53.538;49.366;2022-07-06T13:41:13;6.13;;;0.80;;
67195;SDS011;54122;53.538;49.366;2022-07-06T13:43:39;3.08;;;0.60;;
67195;SDS011;54122;53.538;49.366;2022-07-06T13:46:05;2.42;;;0.73;;
67195;SDS011;54122;53.538;49.366;2022-07-06T13:48:33;5.95;;;0.77;;
67195;SDS011;54122;53.538;49.366;2022-07-06T13:50:59;5.05;;;0.80;;
67195;SDS011;54122;53.538;49.366;2022-07-06T13:53:26;3.20;;;0.80;;
67195;SDS011;54122;53.538;49.366;2022-07-06T13:55:52;7.25;;;0.75;;
67195;SDS011;54122;53.538;49.366;2022-07-06T13:58:19;6.95;;;0.90;;
67195;SDS011;54122;53.538;49.366;2022-07-06T14:00:45;7.63;;;1.08;;
67195;SDS011;54122;53.538;49.366;2022-07-06T14:03:12;8.63;;;0.90;;
67195;SDS011;54122;53.538;49.366;2022-07-06T14:05:38;7.65;;;0.85;;
67195;SDS011;54122;53.538;49.366;2022-07-06T14:08:04;3.33;;;0.70;;
67195;SDS011;54122;53.538;49.366;2022-07-06T14:10:30;9.38;;;1.17;;
67195;SDS011;54122;53.538;49.366;2022-07-06T14:12:56;12.50;;;0.77;;
67195;SDS011;54122;53.538;49.366;2022-07-06T14:15:23;7.13;;;1.05;;
67195;SDS011;54122;53.538;49.366;2022-07-06T14:17:49;19.90;;;1.38;;
67195;SDS011;54122;53.538;49.366;2022-07-06T14:20:15;10.52;;;1.35;;
67195;SDS011;54122;53.538;49.366;2022-07-06T14:22:41;13.30;;;1.20;;
67195;SDS011;54122;53.538;49.366;2022-07-06T14:25:08;11.88;;;1.00;;
67195;SDS011;54122;53.538;49.366;2022-07-06T14:27:34;6.70;;;0.90;;
67195;SDS011;54122;53.538;49.366;2022-07-06T14:30:01;11.55;;;1.08;;
67195;SDS011;54122;53.538;49.366;2022-07-06T14:32:28;10.13;;;1.05;;
67195;SDS011;54122;53.538;49.366;2022-07-06T14:34:54;37.10;;;1.42;;
67195;SDS011;54122;53.538;49.366;2022-07-06T14:37:21;5.22;;;1.10;;
67195;SDS011;54122;53.538;49.366;2022-07-06T14:39:47;6.55;;;1.02;;
67195;SDS011;54122;53.538;49.366;2022-07-06T14:42:14;7.65;;;0.80;;
67195;SDS011;54122;53.538;49.366;2022-07-06T14:44:40;12.82;;;1.27;;
67195;SDS011;54122;53.538;49.366;2022-07-06T14:47:07;14.00;;;1.30;;
67195;SDS011;54122;53.538;49.366;2022-07-06T14:49:33;21.23;;;1.52;;
67195;SDS011;54122;53.538;49.366;2022-07-06T14:51:59;6.30;;;1.20;;
67195;SDS011;54122;53.538;49.366;2022-07-06T14:54:25;5.53;;;1.17;;